sensor_id;sensor_type;location;lat;lon;timestamp;pressure;altitude;pressure_sealevel;temperature;humidity
47811;BME280;33575;52.600;7.318;2024-01-30T00:01:07;102476.10;;;6.12;89.79
47811;BME280;33575;52.600;7.318;2024-01-30T00:03:37;102476.52;;;6.11;89.86
47811;BME280;33575;52.600;7.318;2024-01-30T00:06:08;102472.28;;;6.10;91.51
47811;BME280;33575;52.600;7.318;2024-01-30T00:08:38;102470.72;;;6.09;90.53
47811;BME280;33575;52.600;7.318;2024-01-30T00:11:08;102470.86;;;6.11;90.44
47811;BME280;33575;52.600;7.318;2024-01-30T00:13:38;102472.91;;;6.14;90.35
47811;BME280;33575;52.600;7.318;2024-01-30T00:18:40;102470.01;;;6.16;91.07
47811;BME280;33575;52.600;7.318;2024-01-30T00:21:10;102465.03;;;6.14;91.49
47811;BME280;33575;52.600;7.318;2024-01-30T00:23:41;102461.92;;;6.12;90.75
47811;BME280;33575;52.600;7.318;2024-01-30T00:26:11;102461.51;;;6.07;91.37
47811;BME280;33575;52.600;7.318;2024-01-30T00:28:42;102458.51;;;6.01;92.99
47811;BME280;33575;52.600;7.318;2024-01-30T00:31:12;102458.05;;;6.00;92.70
47811;BME280;33575;52.600;7.318;2024-01-30T00:33:43;102451.10;;;5.97;92.56
47811;BME280;33575;52.600;7.318;2024-01-30T00:36:13;102450.20;;;5.98;91.03
47811;BME280;33575;52.600;7.318;2024-01-30T00:38:43;102452.13;;;5.93;92.20
47811;BME280;33575;52.600;7.318;2024-01-30T00:41:14;102450.82;;;5.96;92.36
47811;BME280;33575;52.600;7.318;2024-01-30T00:43:44;102451.33;;;5.98;91.21
47811;BME280;33575;52.600;7.318;2024-01-30T00:46:15;102451.09;;;6.03;92.11
47811;BME280;33575;52.600;7.318;2024-01-30T00:48:45;102451.50;;;6.03;92.65
47811;BME280;33575;52.600;7.318;2024-01-30T00:51:16;102447.71;;;6.02;93.49
47811;BME280;33575;52.600;7.318;2024-01-30T00:53:46;102445.03;;;6.06;92.89
47811;BME280;33575;52.600;7.318;2024-01-30T00:56:16;102452.53;;;6.06;92.28
47811;BME280;33575;52.600;7.318;2024-01-30T00:58:47;102452.08;;;6.09;92.00
47811;BME280;33575;52.600;7.318;2024-01-30T01:01:17;102452.56;;;6.12;92.89
47811;BME280;33575;52.600;7.318;2024-01-30T01:03:48;102452.34;;;6.10;93.30
47811;BME280;33575;52.600;7.318;2024-01-30T01:06:18;102451.52;;;6.13;92.77
47811;BME280;33575;52.600;7.318;2024-01-30T01:08:49;102450.50;;;6.13;93.17
47811;BME280;33575;52.600;7.318;2024-01-30T01:11:19;102447.52;;;6.18;92.37
47811;BME280;33575;52.600;7.318;2024-01-30T01:13:49;102446.53;;;6.22;92.91
47811;BME280;33575;52.600;7.318;2024-01-30T01:16:20;102445.69;;;6.27;91.97
47811;BME280;33575;52.600;7.318;2024-01-30T01:18:50;102448.98;;;6.28;93.39
47811;BME280;33575;52.600;7.318;2024-01-30T01:21:21;102443.03;;;6.30;92.95
47811;BME280;33575;52.600;7.318;2024-01-30T01:23:51;102441.38;;;6.32;93.17
47811;BME280;33575;52.600;7.318;2024-01-30T01:26:21;102441.14;;;6.32;93.47
47811;BME280;33575;52.600;7.318;2024-01-30T01:28:52;102439.67;;;6.31;92.93
47811;BME280;33575;52.600;7.318;2024-01-30T01:31:23;102444.52;;;6.29;94.16
47811;BME280;33575;52.600;7.318;2024-01-30T01:33:53;102444.04;;;6.29;93.17
47811;BME280;33575;52.600;7.318;2024-01-30T01:36:24;102445.93;;;6.25;93.93
47811;BME280;33575;52.600;7.318;2024-01-30T01:38:54;102443.81;;;6.20;94.74
47811;BME280;33575;52.600;7.318;2024-01-30T01:41:24;102445.06;;;6.19;94.35
47811;BME280;33575;52.600;7.318;2024-01-30T01:43:55;102447.71;;;6.23;93.51
47811;BME280;33575;52.600;7.318;2024-01-30T01:46:27;102449.82;;;6.23;94.69
47811;BME280;33575;52.600;7.318;2024-01-30T01:48:57;102449.54;;;6.22;94.56
47811;BME280;33575;52.600;7.318;2024-01-30T01:51:28;102448.43;;;6.25;94.24
47811;BME280;33575;52.600;7.318;2024-01-30T01:53:59;102447.38;;;6.28;94.31
47811;BME280;33575;52.600;7.318;2024-01-30T01:56:29;102448.12;;;6.31;94.61
47811;BME280;33575;52.600;7.318;2024-01-30T01:59:00;102446.39;;;6.32;94.27
47811;BME280;33575;52.600;7.318;2024-01-30T02:01:29;102443.20;;;6.30;94.75
47811;BME280;33575;52.600;7.318;2024-01-30T02:03:59;102440.30;;;6.26;95.37
47811;BME280;33575;52.600;7.318;2024-01-30T02:06:29;102437.75;;;6.26;94.80
47811;BME280;33575;52.600;7.318;2024-01-30T02:08:59;102432.93;;;6.23;95.38
47811;BME280;33575;52.600;7.318;2024-01-30T02:11:29;102430.17;;;6.18;95.74
47811;BME280;33575;52.600;7.318;2024-01-30T02:14:02;102424.93;;;6.18;95.85
47811;BME280;33575;52.600;7.318;2024-01-30T02:16:30;102423.45;;;6.16;96.50
47811;BME280;33575;52.600;7.318;2024-01-30T02:19:00;102419.26;;;6.16;95.49
47811;BME280;33575;52.600;7.318;2024-01-30T02:21:30;102419.69;;;6.08;96.99
47811;BME280;33575;52.600;7.318;2024-01-30T02:24:01;102416.26;;;6.05;96.61
47811;BME280;33575;52.600;7.318;2024-01-30T02:26:31;102413.53;;;6.10;96.17
47811;BME280;33575;52.600;7.318;2024-01-30T02:29:02;102409.40;;;6.07;96.83
47811;BME280;33575;52.600;7.318;2024-01-30T02:31:33;102407.44;;;6.10;95.71
47811;BME280;33575;52.600;7.318;2024-01-30T02:34:03;102402.92;;;6.00;96.49
47811;BME280;33575;52.600;7.318;2024-01-30T02:36:33;102400.15;;;5.97;97.00
47811;BME280;33575;52.600;7.318;2024-01-30T02:39:04;102397.37;;;5.94;97.17
47811;BME280;33575;52.600;7.318;2024-01-30T02:41:34;102394.20;;;5.97;96.24
47811;BME280;33575;52.600;7.318;2024-01-30T02:44:05;102397.09;;;5.93;96.79
47811;BME280;33575;52.600;7.318;2024-01-30T02:46:35;102394.98;;;5.94;97.65
47811;BME280;33575;52.600;7.318;2024-01-30T02:49:06;102390.64;;;5.96;96.84
47811;BME280;33575;52.600;7.318;2024-01-30T02:51:37;102389.27;;;6.03;96.46
47811;BME280;33575;52.600;7.318;2024-01-30T02:54:07;102384.28;;;6.05;96.57
47811;BME280;33575;52.600;7.318;2024-01-30T02:56:37;102382.67;;;6.06;96.10
47811;BME280;33575;52.600;7.318;2024-01-30T02:59:08;102377.67;;;6.09;96.47
47811;BME280;33575;52.600;7.318;2024-01-30T03:01:43;102381.51;;;6.13;96.46
47811;BME280;33575;52.600;7.318;2024-01-30T03:04:09;102379.95;;;6.14;96.02
47811;BME280;33575;52.600;7.318;2024-01-30T03:06:45;102380.73;;;6.15;96.93
47811;BME280;33575;52.600;7.318;2024-01-30T03:09:10;102373.32;;;6.25;100.00
47811;BME280;33575;52.600;7.318;2024-01-30T03:11:41;102367.97;;;6.26;96.96
47811;BME280;33575;52.600;7.318;2024-01-30T03:14:11;102369.79;;;6.19;96.28
47811;BME280;33575;52.600;7.318;2024-01-30T03:16:41;102370.18;;;6.13;95.69
47811;BME280;33575;52.600;7.318;2024-01-30T03:19:11;102366.89;;;6.08;96.07
47811;BME280;33575;52.600;7.318;2024-01-30T03:21:42;102367.84;;;6.02;96.07
47811;BME280;33575;52.600;7.318;2024-01-30T03:24:12;102362.85;;;5.96;96.53
47811;BME280;33575;52.600;7.318;2024-01-30T03:26:43;102359.38;;;5.95;96.39
47811;BME280;33575;52.600;7.318;2024-01-30T03:29:13;102356.24;;;5.91;96.81
47811;BME280;33575;52.600;7.318;2024-01-30T03:31:44;102359.56;;;5.86;96.90
47811;BME280;33575;52.600;7.318;2024-01-30T03:34:14;102354.04;;;5.88;96.94
47811;BME280;33575;52.600;7.318;2024-01-30T03:36:44;102351.99;;;5.88;96.71
47811;BME280;33575;52.600;7.318;2024-01-30T03:39:15;102352.32;;;5.86;97.76
47811;BME280;33575;52.600;7.318;2024-01-30T03:41:45;102348.41;;;5.89;97.33
47811;BME280;33575;52.600;7.318;2024-01-30T03:44:16;102344.71;;;5.80;98.61
47811;BME280;33575;52.600;7.318;2024-01-30T03:46:47;102344.78;;;5.77;98.48
47811;BME280;33575;52.600;7.318;2024-01-30T03:49:17;102347.25;;;5.79;98.48
47811;BME280;33575;52.600;7.318;2024-01-30T03:51:47;102341.56;;;5.74;98.94
47811;BME280;33575;52.600;7.318;2024-01-30T03:54:18;102340.36;;;5.80;98.53
47811;BME280;33575;52.600;7.318;2024-01-30T03:56:48;102337.22;;;5.76;98.44
47811;BME280;33575;52.600;7.318;2024-01-30T03:59:18;102333.79;;;5.74;98.98
47811;BME280;33575;52.600;7.318;2024-01-30T04:01:50;102335.77;;;5.77;98.85
47811;BME280;33575;52.600;7.318;2024-01-30T04:04:20;102336.69;;;5.79;98.67
47811;BME280;33575;52.600;7.318;2024-01-30T04:06:50;102333.44;;;5.80;98.60
47811;BME280;33575;52.600;7.318;2024-01-30T04:09:21;102332.71;;;5.82;98.37
47811;BME280;33575;52.600;7.318;2024-01-30T04:11:52;102334.15;;;5.87;98.23
47811;BME280;33575;52.600;7.318;2024-01-30T04:14:22;102332.14;;;5.85;98.27
47811;BME280;33575;52.600;7.318;2024-01-30T04:16:52;102326.62;;;5.79;98.85
47811;BME280;33575;52.600;7.318;2024-01-30T04:19:22;102323.66;;;5.81;98.47
47811;BME280;33575;52.600;7.318;2024-01-30T04:21:53;102319.52;;;5.84;98.49
47811;BME280;33575;52.600;7.318;2024-01-30T04:24:23;102319.52;;;5.83;98.32
47811;BME280;33575;52.600;7.318;2024-01-30T04:26:53;102320.76;;;5.79;98.75
47811;BME280;33575;52.600;7.318;2024-01-30T04:29:24;102318.61;;;5.79;99.08
47811;BME280;33575;52.600;7.318;2024-01-30T04:31:54;102318.22;;;5.78;99.01
47811;BME280;33575;52.600;7.318;2024-01-30T04:34:25;102315.27;;;5.82;98.69
47811;BME280;33575;52.600;7.318;2024-01-30T04:36:55;102310.44;;;5.85;98.52
47811;BME280;33575;52.600;7.318;2024-01-30T04:39:25;102307.61;;;5.85;98.51
47811;BME280;33575;52.600;7.318;2024-01-30T04:41:56;102306.72;;;5.89;98.14
47811;BME280;33575;52.600;7.318;2024-01-30T04:44:27;102308.25;;;5.91;98.16
47811;BME280;33575;52.600;7.318;2024-01-30T04:46:57;102307.49;;;5.96;97.23
47811;BME280;33575;52.600;7.318;2024-01-30T04:49:27;102305.65;;;5.92;97.68
47811;BME280;33575;52.600;7.318;2024-01-30T04:51:58;102306.81;;;5.97;97.28
47811;BME280;33575;52.600;7.318;2024-01-30T04:54:28;102310.23;;;5.98;97.16
47811;BME280;33575;52.600;7.318;2024-01-30T04:56:59;102312.45;;;6.05;96.54
47811;BME280;33575;52.600;7.318;2024-01-30T04:59:29;102309.52;;;6.09;96.13
47811;BME280;33575;52.600;7.318;2024-01-30T05:01:59;102306.03;;;6.11;96.11
47811;BME280;33575;52.600;7.318;2024-01-30T05:04:30;102304.14;;;6.09;95.89
47811;BME280;33575;52.600;7.318;2024-01-30T05:07:00;102298.75;;;6.09;95.07
47811;BME280;33575;52.600;7.318;2024-01-30T05:09:30;102297.07;;;6.03;95.97
47811;BME280;33575;52.600;7.318;2024-01-30T05:12:00;102292.08;;;6.01;95.36
47811;BME280;33575;52.600;7.318;2024-01-30T05:14:31;102292.25;;;5.95;95.74
47811;BME280;33575;52.600;7.318;2024-01-30T05:17:02;102287.96;;;5.91;96.05
47811;BME280;33575;52.600;7.318;2024-01-30T05:19:32;102286.67;;;5.85;97.14
47811;BME280;33575;52.600;7.318;2024-01-30T05:22:02;102293.76;;;5.84;96.93
47811;BME280;33575;52.600;7.318;2024-01-30T05:24:33;102293.56;;;5.81;97.32
47811;BME280;33575;52.600;7.318;2024-01-30T05:27:03;102292.49;;;5.77;97.75
47811;BME280;33575;52.600;7.318;2024-01-30T05:29:33;102296.30;;;5.75;97.96
47811;BME280;33575;52.600;7.318;2024-01-30T05:32:04;102294.29;;;5.70;98.70
47811;BME280;33575;52.600;7.318;2024-01-30T05:34:35;102291.74;;;5.74;98.73
47811;BME280;33575;52.600;7.318;2024-01-30T05:37:05;102286.48;;;5.69;99.05
47811;BME280;33575;52.600;7.318;2024-01-30T05:39:35;102287.31;;;5.68;99.11
47811;BME280;33575;52.600;7.318;2024-01-30T05:42:06;102293.51;;;5.70;99.23
47811;BME280;33575;52.600;7.318;2024-01-30T05:44:36;102288.02;;;5.69;99.67
47811;BME280;33575;52.600;7.318;2024-01-30T05:47:07;102282.99;;;5.74;99.00
47811;BME280;33575;52.600;7.318;2024-01-30T05:49:37;102280.33;;;5.71;99.43
47811;BME280;33575;52.600;7.318;2024-01-30T05:52:08;102284.76;;;5.69;99.59
47811;BME280;33575;52.600;7.318;2024-01-30T05:54:38;102282.76;;;5.76;99.05
47811;BME280;33575;52.600;7.318;2024-01-30T05:57:09;102281.86;;;5.72;100.00
47811;BME280;33575;52.600;7.318;2024-01-30T05:59:43;102286.69;;;5.76;99.22
47811;BME280;33575;52.600;7.318;2024-01-30T06:02:10;102287.38;;;5.78;98.56
47811;BME280;33575;52.600;7.318;2024-01-30T06:04:40;102291.83;;;5.81;98.95
47811;BME280;33575;52.600;7.318;2024-01-30T06:07:11;102287.54;;;5.81;99.06
47811;BME280;33575;52.600;7.318;2024-01-30T06:09:41;102289.03;;;5.84;99.07
47811;BME280;33575;52.600;7.318;2024-01-30T06:12:12;102287.70;;;5.85;98.50
47811;BME280;33575;52.600;7.318;2024-01-30T06:14:45;102281.49;;;5.83;98.38
47811;BME280;33575;52.600;7.318;2024-01-30T06:17:12;102283.33;;;5.85;98.52
47811;BME280;33575;52.600;7.318;2024-01-30T06:19:43;102281.74;;;5.90;97.85
47811;BME280;33575;52.600;7.318;2024-01-30T06:22:13;102283.99;;;5.83;98.90
47811;BME280;33575;52.600;7.318;2024-01-30T06:24:43;102284.87;;;5.87;98.86
47811;BME280;33575;52.600;7.318;2024-01-30T06:27:14;102279.94;;;5.89;98.87
47811;BME280;33575;52.600;7.318;2024-01-30T06:29:44;102283.14;;;5.89;98.82
47811;BME280;33575;52.600;7.318;2024-01-30T06:32:15;102280.51;;;5.92;98.43
47811;BME280;33575;52.600;7.318;2024-01-30T06:34:46;102277.07;;;5.89;99.53
47811;BME280;33575;52.600;7.318;2024-01-30T06:37:16;102279.88;;;5.92;98.23
47811;BME280;33575;52.600;7.318;2024-01-30T06:39:47;102281.73;;;5.99;97.75
47811;BME280;33575;52.600;7.318;2024-01-30T06:42:17;102287.79;;;6.02;98.52
47811;BME280;33575;52.600;7.318;2024-01-30T06:44:48;102286.43;;;6.04;98.51
47811;BME280;33575;52.600;7.318;2024-01-30T06:47:19;102288.48;;;6.11;98.53
47811;BME280;33575;52.600;7.318;2024-01-30T06:49:49;102287.96;;;6.11;97.84
47811;BME280;33575;52.600;7.318;2024-01-30T06:52:19;102289.86;;;6.17;98.00
47811;BME280;33575;52.600;7.318;2024-01-30T06:54:50;102290.66;;;6.25;97.62
47811;BME280;33575;52.600;7.318;2024-01-30T06:57:20;102290.98;;;6.29;97.38
47811;BME280;33575;52.600;7.318;2024-01-30T06:59:50;102293.93;;;6.32;97.12
47811;BME280;33575;52.600;7.318;2024-01-30T07:02:20;102294.04;;;6.36;97.12
47811;BME280;33575;52.600;7.318;2024-01-30T07:04:50;102293.15;;;6.42;96.72
47811;BME280;33575;52.600;7.318;2024-01-30T07:07:21;102292.33;;;6.48;96.99
47811;BME280;33575;52.600;7.318;2024-01-30T07:09:51;102297.82;;;6.53;96.68
47811;BME280;33575;52.600;7.318;2024-01-30T07:12:21;102286.17;;;6.59;96.00
47811;BME280;33575;52.600;7.318;2024-01-30T07:14:52;102287.10;;;6.65;95.85
47811;BME280;33575;52.600;7.318;2024-01-30T07:17:22;102286.38;;;6.69;95.59
47811;BME280;33575;52.600;7.318;2024-01-30T07:19:53;102285.54;;;6.67;96.19
47811;BME280;33575;52.600;7.318;2024-01-30T07:22:23;102286.46;;;6.71;95.06
47811;BME280;33575;52.600;7.318;2024-01-30T07:24:53;102288.11;;;6.61;96.41
47811;BME280;33575;52.600;7.318;2024-01-30T07:27:24;102286.81;;;6.62;95.81
47811;BME280;33575;52.600;7.318;2024-01-30T07:29:54;102286.02;;;6.59;95.82
47811;BME280;33575;52.600;7.318;2024-01-30T07:32:24;102285.94;;;6.60;96.49
47811;BME280;33575;52.600;7.318;2024-01-30T07:35:00;102285.86;;;6.60;96.73
47811;BME280;33575;52.600;7.318;2024-01-30T07:37:26;102289.55;;;6.59;96.92
47811;BME280;33575;52.600;7.318;2024-01-30T07:39:56;102296.29;;;6.65;97.12
47811;BME280;33575;52.600;7.318;2024-01-30T07:42:26;102294.19;;;6.69;96.39
47811;BME280;33575;52.600;7.318;2024-01-30T07:44:57;102291.43;;;6.73;96.45
47811;BME280;33575;52.600;7.318;2024-01-30T07:47:27;102281.54;;;6.73;97.21
47811;BME280;33575;52.600;7.318;2024-01-30T07:49:57;102277.38;;;6.77;97.31
47811;BME280;33575;52.600;7.318;2024-01-30T07:52:27;102271.25;;;6.74;97.22
47811;BME280;33575;52.600;7.318;2024-01-30T07:54:57;102276.71;;;6.79;97.30
47811;BME280;33575;52.600;7.318;2024-01-30T07:57:27;102283.08;;;6.78;97.40
47811;BME280;33575;52.600;7.318;2024-01-30T07:59:58;102274.49;;;6.73;97.52
47811;BME280;33575;52.600;7.318;2024-01-30T08:02:29;102287.76;;;6.77;97.30
47811;BME280;33575;52.600;7.318;2024-01-30T08:05:00;102285.29;;;6.75;97.94
47811;BME280;33575;52.600;7.318;2024-01-30T08:07:30;102288.50;;;6.74;97.92
47811;BME280;33575;52.600;7.318;2024-01-30T08:10:01;102284.03;;;6.67;98.16
47811;BME280;33575;52.600;7.318;2024-01-30T08:12:31;102291.43;;;6.76;97.88
47811;BME280;33575;52.600;7.318;2024-01-30T08:15:02;102289.99;;;6.79;98.30
47811;BME280;33575;52.600;7.318;2024-01-30T08:17:32;102287.91;;;6.88;98.18
47811;BME280;33575;52.600;7.318;2024-01-30T08:20:04;102293.31;;;6.86;98.16
47811;BME280;33575;52.600;7.318;2024-01-30T08:22:33;102290.92;;;6.97;98.28
47811;BME280;33575;52.600;7.318;2024-01-30T08:25:05;102299.00;;;7.00;98.91
47811;BME280;33575;52.600;7.318;2024-01-30T08:27:35;102301.08;;;7.08;98.94
47811;BME280;33575;52.600;7.318;2024-01-30T08:30:06;102298.16;;;7.13;98.72
47811;BME280;33575;52.600;7.318;2024-01-30T08:32:35;102307.17;;;7.27;97.69
47811;BME280;33575;52.600;7.318;2024-01-30T08:35:06;102303.99;;;7.30;97.79
47811;BME280;33575;52.600;7.318;2024-01-30T08:37:36;102303.12;;;7.30;97.89
47811;BME280;33575;52.600;7.318;2024-01-30T08:40:07;102300.88;;;7.30;98.05
47811;BME280;33575;52.600;7.318;2024-01-30T08:42:37;102296.05;;;7.37;97.44
47811;BME280;33575;52.600;7.318;2024-01-30T08:45:08;102303.37;;;7.40;97.49
47811;BME280;33575;52.600;7.318;2024-01-30T08:47:37;102305.81;;;7.46;96.64
47811;BME280;33575;52.600;7.318;2024-01-30T08:50:08;102307.73;;;7.51;96.74
47811;BME280;33575;52.600;7.318;2024-01-30T08:52:38;102302.37;;;7.47;97.16
47811;BME280;33575;52.600;7.318;2024-01-30T08:55:08;102307.19;;;7.45;97.26
47811;BME280;33575;52.600;7.318;2024-01-30T08:57:38;102309.06;;;7.49;97.47
47811;BME280;33575;52.600;7.318;2024-01-30T09:00:09;102309.97;;;7.54;96.53
47811;BME280;33575;52.600;7.318;2024-01-30T09:02:39;102303.87;;;7.52;97.43
47811;BME280;33575;52.600;7.318;2024-01-30T09:05:10;102302.00;;;7.54;97.35
47811;BME280;33575;52.600;7.318;2024-01-30T09:07:40;102303.64;;;7.55;97.51
47811;BME280;33575;52.600;7.318;2024-01-30T09:10:15;102309.72;;;7.64;97.53
47811;BME280;33575;52.600;7.318;2024-01-30T09:12:40;102313.55;;;7.78;99.93
47811;BME280;33575;52.600;7.318;2024-01-30T09:15:10;102321.55;;;7.91;98.02
47811;BME280;33575;52.600;7.318;2024-01-30T09:17:40;102317.00;;;7.86;97.10
47811;BME280;33575;52.600;7.318;2024-01-30T09:20:11;102319.23;;;7.90;97.68
47811;BME280;33575;52.600;7.318;2024-01-30T09:22:41;102319.54;;;7.97;96.51
47811;BME280;33575;52.600;7.318;2024-01-30T09:25:11;102315.76;;;8.05;96.34
47811;BME280;33575;52.600;7.318;2024-01-30T09:27:42;102308.44;;;8.06;96.77
47811;BME280;33575;52.600;7.318;2024-01-30T09:30:12;102300.70;;;8.17;96.04
47811;BME280;33575;52.600;7.318;2024-01-30T09:32:43;102301.92;;;8.25;95.87
47811;BME280;33575;52.600;7.318;2024-01-30T09:35:13;102306.33;;;8.33;95.19
47811;BME280;33575;52.600;7.318;2024-01-30T09:37:43;102317.33;;;8.39;94.93
47811;BME280;33575;52.600;7.318;2024-01-30T09:40:13;102322.06;;;8.40;95.85
47811;BME280;33575;52.600;7.318;2024-01-30T09:42:45;102322.12;;;8.49;95.07
47811;BME280;33575;52.600;7.318;2024-01-30T09:45:14;102319.57;;;8.49;96.09
47811;BME280;33575;52.600;7.318;2024-01-30T09:47:44;102303.99;;;8.60;95.72
47811;BME280;33575;52.600;7.318;2024-01-30T09:50:15;102306.86;;;8.70;95.39
47811;BME280;33575;52.600;7.318;2024-01-30T09:52:45;102307.19;;;8.75;95.34
47811;BME280;33575;52.600;7.318;2024-01-30T09:55:14;102321.02;;;8.81;95.42
47811;BME280;33575;52.600;7.318;2024-01-30T09:57:45;102320.45;;;8.93;95.08
47811;BME280;33575;52.600;7.318;2024-01-30T10:00:16;102317.13;;;8.97;96.00
47811;BME280;33575;52.600;7.318;2024-01-30T10:02:46;102319.00;;;9.07;95.52
47811;BME280;33575;52.600;7.318;2024-01-30T10:05:19;102318.45;;;9.13;95.38
47811;BME280;33575;52.600;7.318;2024-01-30T10:07:52;102315.95;;;9.11;95.99
47811;BME280;33575;52.600;7.318;2024-01-30T10:10:16;102323.53;;;9.25;95.21
47811;BME280;33575;52.600;7.318;2024-01-30T10:12:46;102321.81;;;9.31;94.99
47811;BME280;33575;52.600;7.318;2024-01-30T10:15:17;102321.82;;;9.40;95.42
47811;BME280;33575;52.600;7.318;2024-01-30T10:17:47;102321.52;;;9.53;94.30
47811;BME280;33575;52.600;7.318;2024-01-30T10:20:18;102322.40;;;9.57;94.41
47811;BME280;33575;52.600;7.318;2024-01-30T10:22:48;102326.26;;;9.69;94.74
47811;BME280;33575;52.600;7.318;2024-01-30T10:25:21;102326.64;;;9.72;95.34
47811;BME280;33575;52.600;7.318;2024-01-30T10:27:53;102330.12;;;9.76;94.72
47811;BME280;33575;52.600;7.318;2024-01-30T10:30:20;102328.58;;;9.84;94.31
47811;BME280;33575;52.600;7.318;2024-01-30T10:32:51;102326.19;;;9.86;94.27
47811;BME280;33575;52.600;7.318;2024-01-30T10:35:21;102327.53;;;9.95;94.20
47811;BME280;33575;52.600;7.318;2024-01-30T10:37:52;102329.53;;;9.99;94.54
47811;BME280;33575;52.600;7.318;2024-01-30T10:40:21;102330.58;;;10.09;94.19
47811;BME280;33575;52.600;7.318;2024-01-30T10:42:53;102330.48;;;10.12;94.16
47811;BME280;33575;52.600;7.318;2024-01-30T10:45:26;102328.29;;;10.19;94.22
47811;BME280;33575;52.600;7.318;2024-01-30T10:47:55;102324.14;;;10.24;95.03
47811;BME280;33575;52.600;7.318;2024-01-30T10:50:25;102326.28;;;10.34;94.02
47811;BME280;33575;52.600;7.318;2024-01-30T10:52:55;102329.69;;;10.35;93.98
47811;BME280;33575;52.600;7.318;2024-01-30T10:55:26;102327.48;;;10.26;93.95
47811;BME280;33575;52.600;7.318;2024-01-30T10:57:55;102325.56;;;10.30;94.09
47811;BME280;33575;52.600;7.318;2024-01-30T11:00:25;102326.39;;;10.31;93.77
47811;BME280;33575;52.600;7.318;2024-01-30T11:02:56;102326.90;;;10.33;93.96
47811;BME280;33575;52.600;7.318;2024-01-30T11:05:27;102324.98;;;10.32;94.00
47811;BME280;33575;52.600;7.318;2024-01-30T11:07:56;102321.55;;;10.37;93.84
47811;BME280;33575;52.600;7.318;2024-01-30T11:10:27;102316.95;;;10.33;94.56
47811;BME280;33575;52.600;7.318;2024-01-30T11:12:57;102320.85;;;10.41;94.27
47811;BME280;33575;52.600;7.318;2024-01-30T11:15:28;102321.49;;;10.33;95.06
47811;BME280;33575;52.600;7.318;2024-01-30T11:17:58;102320.88;;;10.34;94.49
47811;BME280;33575;52.600;7.318;2024-01-30T11:20:30;102322.82;;;10.43;94.38
47811;BME280;33575;52.600;7.318;2024-01-30T11:23:00;102321.25;;;10.47;94.29
47811;BME280;33575;52.600;7.318;2024-01-30T11:25:31;102322.87;;;10.48;94.28
47811;BME280;33575;52.600;7.318;2024-01-30T11:28:00;102314.31;;;10.42;95.03
47811;BME280;33575;52.600;7.318;2024-01-30T11:30:31;102316.82;;;10.47;94.65
47811;BME280;33575;52.600;7.318;2024-01-30T11:33:05;102317.32;;;10.55;94.41
47811;BME280;33575;52.600;7.318;2024-01-30T11:35:33;102314.39;;;10.55;94.75
47811;BME280;33575;52.600;7.318;2024-01-30T11:38:04;102308.41;;;10.51;94.72
47811;BME280;33575;52.600;7.318;2024-01-30T11:40:35;102307.79;;;10.44;95.74
47811;BME280;33575;52.600;7.318;2024-01-30T11:43:05;102315.20;;;10.47;94.34
47811;BME280;33575;52.600;7.318;2024-01-30T11:45:35;102306.72;;;10.55;94.19
47811;BME280;33575;52.600;7.318;2024-01-30T11:48:05;102310.64;;;10.58;93.66
47811;BME280;33575;52.600;7.318;2024-01-30T11:50:38;102304.43;;;10.49;94.07
47811;BME280;33575;52.600;7.318;2024-01-30T11:53:06;102308.43;;;10.49;94.44
47811;BME280;33575;52.600;7.318;2024-01-30T11:55:36;102305.80;;;10.59;94.24
47811;BME280;33575;52.600;7.318;2024-01-30T11:58:07;102303.88;;;10.60;93.93
47811;BME280;33575;52.600;7.318;2024-01-30T12:00:38;102309.22;;;10.58;94.95
47811;BME280;33575;52.600;7.318;2024-01-30T12:03:11;102307.35;;;10.66;93.89
47811;BME280;33575;52.600;7.318;2024-01-30T12:05:39;102305.89;;;10.64;92.81
47811;BME280;33575;52.600;7.318;2024-01-30T12:08:15;102304.60;;;10.49;92.47
47811;BME280;33575;52.600;7.318;2024-01-30T12:10:39;102301.01;;;10.42;92.84
47811;BME280;33575;52.600;7.318;2024-01-30T12:13:10;102306.21;;;10.39;92.82
47811;BME280;33575;52.600;7.318;2024-01-30T12:15:40;102305.11;;;10.27;93.86
47811;BME280;33575;52.600;7.318;2024-01-30T12:18:11;102303.49;;;10.22;95.80
47811;BME280;33575;52.600;7.318;2024-01-30T12:20:41;102300.80;;;10.30;96.08
47811;BME280;33575;52.600;7.318;2024-01-30T12:23:12;102301.34;;;10.41;96.25
47811;BME280;33575;52.600;7.318;2024-01-30T12:25:42;102303.42;;;10.44;95.15
47811;BME280;33575;52.600;7.318;2024-01-30T12:28:12;102298.02;;;10.50;93.80
47811;BME280;33575;52.600;7.318;2024-01-30T12:30:43;102292.17;;;10.47;93.87
47811;BME280;33575;52.600;7.318;2024-01-30T12:33:16;102303.75;;;10.40;93.98
47811;BME280;33575;52.600;7.318;2024-01-30T12:35:49;102296.73;;;10.31;93.93
47811;BME280;33575;52.600;7.318;2024-01-30T12:38:15;102300.01;;;10.27;94.12
47811;BME280;33575;52.600;7.318;2024-01-30T12:40:46;102297.43;;;10.21;94.72
47811;BME280;33575;52.600;7.318;2024-01-30T12:43:20;102293.60;;;10.17;94.42
47811;BME280;33575;52.600;7.318;2024-01-30T12:45:46;102295.75;;;10.10;95.22
47811;BME280;33575;52.600;7.318;2024-01-30T12:48:16;102295.70;;;10.25;94.34
47811;BME280;33575;52.600;7.318;2024-01-30T12:50:46;102291.17;;;10.23;95.05
47811;BME280;33575;52.600;7.318;2024-01-30T12:53:16;102295.48;;;10.31;94.40
47811;BME280;33575;52.600;7.318;2024-01-30T12:55:46;102287.99;;;10.32;94.39
47811;BME280;33575;52.600;7.318;2024-01-30T12:58:17;102298.64;;;10.36;94.68
47811;BME280;33575;52.600;7.318;2024-01-30T13:00:48;102294.46;;;10.46;94.53
47811;BME280;33575;52.600;7.318;2024-01-30T13:03:18;102297.48;;;10.58;93.90
47811;BME280;33575;52.600;7.318;2024-01-30T13:05:48;102299.32;;;10.63;93.22
47811;BME280;33575;52.600;7.318;2024-01-30T13:08:19;102296.51;;;10.69;92.89
47811;BME280;33575;52.600;7.318;2024-01-30T13:10:51;102301.53;;;10.79;92.88
47811;BME280;33575;52.600;7.318;2024-01-30T13:13:22;102307.25;;;10.86;92.65
47811;BME280;33575;52.600;7.318;2024-01-30T13:15:51;102302.90;;;10.86;91.71